Usinsk, Russia
Current Conditions -  °F | °C
As of 9:00 PM on Sunday 25 Jan 2015 (Local Time) from UUYY Reporting Station
Overcast Overcast  
Wind Chill: 12°   Ceiling: 1400
Heat Index: 23°   Visibility: 6mi
Dew Point: 19°   Wind: 11mph
Humidity: 86%   Direction: 210°SSW
Pressure: 30.33"   Gusts: 20mph
Location:  65.92°N, 57.41°E
Report Text: UUYY 251800Z 21005G09MPS 9999 BKN014CB OVC066 M05/M07 Q1027 TEMPO 2000 SHSN 19550239 RMK QFE761/1015
Loading
Personal Weather Stations






























Interactive Weather Map New forecast layout! Learn more

10-Day Weather Forecast

Advertisements
Track Severe Weather on mobile